createdAt,value
2022-09-09T00:02:21.472Z,75.68
2022-09-09T00:05:02.369Z,75.69
2022-09-09T00:07:33.842Z,75.93
2022-09-09T00:10:27.925Z,76.04
2022-09-09T00:13:17.185Z,76.15
2022-09-09T00:16:17.235Z,76.52
2022-09-09T00:18:53.518Z,76.37
2022-09-09T00:21:35.252Z,76.37
2022-09-09T00:24:17.606Z,76.54
2022-09-09T00:27:01.654Z,76.78
2022-09-09T00:29:44.982Z,76.88
2022-09-09T00:32:19.646Z,76.91
2022-09-09T00:34:59.591Z,77.06
2022-09-09T00:37:36.081Z,77.07
2022-09-09T00:40:27.280Z,77.34
2022-09-09T00:43:28.396Z,77.08
2022-09-09T00:46:42.076Z,77.35
2022-09-09T00:49:42.612Z,77.37
2022-09-09T00:52:31.915Z,77.18
2022-09-09T00:55:12.756Z,77.11
2022-09-09T00:57:47.179Z,76.99
2022-09-09T01:00:21.198Z,77.20
2022-09-09T01:03:15.856Z,77.55
2022-09-09T01:05:47.421Z,77.39
2022-09-09T01:08:37.318Z,77.39
2022-09-09T01:11:16.878Z,77.38
2022-09-09T01:13:59.939Z,77.18
2022-09-09T01:16:33.869Z,77.53
2022-09-09T01:19:11.842Z,77.69
2022-09-09T01:21:51.184Z,77.70
2022-09-09T01:24:36.469Z,77.74
2022-09-09T01:27:20.705Z,77.66
2022-09-09T01:29:52.457Z,77.68
2022-09-09T01:32:49.449Z,77.63
2022-09-09T01:35:59.393Z,77.53
2022-09-09T01:38:37.077Z,77.27
2022-09-09T01:41:09.137Z,77.47
2022-09-09T01:43:50.145Z,77.49
2022-09-09T01:46:23.714Z,77.70
2022-09-09T01:48:57.216Z,77.51
2022-09-09T01:51:29.583Z,77.54
2022-09-09T01:54:04.623Z,77.89
2022-09-09T01:56:53.270Z,77.90
2022-09-09T01:59:54.990Z,77.92
2022-09-09T02:02:37.263Z,78.30
2022-09-09T02:05:34.141Z,78.30
2022-09-09T02:08:29.487Z,78.14
2022-09-09T02:11:19.724Z,78.53
2022-09-09T02:14:09.537Z,78.29
2022-09-09T02:17:04.251Z,78.04
2022-09-09T02:19:59.257Z,78.45
2022-09-09T02:22:45.604Z,78.40
2022-09-09T02:25:23.548Z,78.47
2022-09-09T02:27:59.763Z,78.64
2022-09-09T02:30:35.287Z,78.78
2022-09-09T02:33:11.542Z,78.84
2022-09-09T02:35:49.477Z,78.53
2022-09-09T02:38:30.586Z,78.70
2022-09-09T02:41:07.973Z,78.89
2022-09-09T02:43:40.535Z,78.82
2022-09-09T02:46:36.277Z,78.67
2022-09-09T02:49:20.361Z,78.69
2022-09-09T02:52:01.729Z,78.72
2022-09-09T02:54:38.868Z,78.37
2022-09-09T02:57:20.451Z,78.82
2022-09-09T02:59:53.922Z,78.96
2022-09-09T03:02:26.430Z,79.15
2022-09-09T03:05:03.389Z,79.72
2022-09-09T03:07:36.042Z,79.34
2022-09-09T03:10:09.004Z,79.20
2022-09-09T03:12:41.603Z,79.30
2022-09-09T03:15:14.079Z,79.39
2022-09-09T03:17:45.665Z,78.92
2022-09-09T03:20:17.360Z,79.15
2022-09-09T03:22:48.917Z,79.08
2022-09-09T03:25:21.176Z,79.15
2022-09-09T03:27:55.851Z,79.26
2022-09-09T03:30:29.418Z,79.13
2022-09-09T03:33:01.941Z,78.84
2022-09-09T03:35:37.453Z,79.05
2022-09-09T03:38:09.016Z,78.59
2022-09-09T03:40:56.525Z,78.80
2022-09-09T03:43:30.647Z,79.01
2022-09-09T03:46:03.156Z,78.58
2022-09-09T03:48:38.111Z,78.96
2022-09-09T03:51:10.429Z,79.44
2022-09-09T03:53:44.054Z,79.48
2022-09-09T03:56:16.210Z,79.24
2022-09-09T03:58:47.925Z,79.57
2022-09-09T04:01:19.735Z,79.41
2022-09-09T04:03:53.622Z,79.84
2022-09-09T04:06:26.899Z,79.66
2022-09-09T04:08:58.721Z,79.65
2022-09-09T04:11:31.672Z,79.57
2022-09-09T04:14:06.943Z,79.69
2022-09-09T04:16:38.979Z,79.81
2022-09-09T04:19:13.382Z,79.87
2022-09-09T04:21:46.588Z,79.81
2022-09-09T04:24:18.494Z,79.75
2022-09-09T04:26:50.098Z,79.56
2022-09-09T04:29:22.074Z,79.48
2022-09-09T04:31:54.259Z,79.33
2022-09-09T04:34:26.736Z,79.28
2022-09-09T04:37:01.395Z,79.07
2022-09-09T04:39:33.679Z,78.84
2022-09-09T04:42:06.481Z,78.66
2022-09-09T04:44:38.081Z,78.53
2022-09-09T04:47:10.621Z,78.46
2022-09-09T04:49:42.137Z,78.47
2022-09-09T04:52:13.816Z,78.07
2022-09-09T04:54:45.911Z,78.01
2022-09-09T04:57:19.056Z,77.94
2022-09-09T04:59:51.939Z,78.00
2022-09-09T05:02:23.655Z,77.78
2022-09-09T05:04:56.194Z,77.68
2022-09-09T05:07:30.052Z,77.67
2022-09-09T05:10:01.722Z,77.61
2022-09-09T05:12:33.311Z,77.19
2022-09-09T05:15:05.813Z,76.97
2022-09-09T05:17:37.440Z,76.52
2022-09-09T05:20:11.243Z,76.71
2022-09-09T05:22:45.360Z,76.23
2022-09-09T05:25:17.005Z,75.28
2022-09-09T05:27:48.660Z,74.22
2022-09-09T05:30:20.953Z,73.19
2022-09-09T05:32:52.546Z,72.95
2022-09-09T05:35:24.460Z,72.43
2022-09-09T05:38:01.331Z,70.42
2022-09-09T05:40:33.578Z,69.33
2022-09-09T05:43:05.315Z,68.92
2022-09-09T05:45:37.236Z,68.26
2022-09-09T05:48:08.877Z,68.58
2022-09-09T05:50:40.417Z,68.36
2022-09-09T05:53:12.150Z,68.28
2022-09-09T05:55:45.043Z,68.33
2022-09-09T05:58:18.446Z,68.45
2022-09-09T06:00:50.024Z,68.83
2022-09-09T06:03:24.566Z,69.23
2022-09-09T06:06:01.923Z,69.49
2022-09-09T06:08:42.484Z,69.21
2022-09-09T06:11:16.941Z,69.02
2022-09-09T06:13:48.735Z,68.92
2022-09-09T06:16:24.735Z,68.86
2022-09-09T06:18:58.767Z,68.24
2022-09-09T06:21:37.954Z,67.99
2022-09-09T06:24:14.762Z,68.56
2022-09-09T06:26:46.757Z,67.75
2022-09-09T06:29:24.233Z,65.79
2022-09-09T06:31:57.696Z,64.02
2022-09-09T06:34:32.022Z,60.92
2022-09-09T06:37:05.578Z,60.95
2022-09-09T06:39:42.966Z,59.28
2022-09-09T06:42:14.597Z,59.04
2022-09-09T06:45:01.839Z,58.95
2022-09-09T06:47:50.441Z,57.50
2022-09-09T06:50:22.052Z,55.54
2022-09-09T06:52:54.947Z,53.87
2022-09-09T06:55:26.993Z,52.69
2022-09-09T06:57:59.353Z,51.38
2022-09-09T07:00:31.828Z,50.10
2022-09-09T07:03:05.929Z,50.33
2022-09-09T07:05:38.109Z,49.39
2022-09-09T07:08:09.682Z,49.43
2022-09-09T07:10:41.248Z,49.08
2022-09-09T07:13:13.114Z,48.23
2022-09-09T07:15:44.734Z,48.73
2022-09-09T07:18:16.405Z,48.43
2022-09-09T07:20:55.954Z,48.98
2022-09-09T07:23:28.067Z,48.67
2022-09-09T07:26:00.349Z,48.88
2022-09-09T07:28:32.485Z,48.40
2022-09-09T07:31:05.734Z,47.17
2022-09-09T07:33:38.021Z,46.84
2022-09-09T07:36:31.286Z,45.69
2022-09-09T07:39:12.238Z,45.08
2022-09-09T07:41:48.896Z,45.23
2022-09-09T07:44:25.718Z,45.29
2022-09-09T07:47:04.688Z,44.57
2022-09-09T07:49:50.811Z,43.49
2022-09-09T07:52:28.501Z,43.70
2022-09-09T07:55:05.538Z,44.62
2022-09-09T07:57:38.581Z,44.98
2022-09-09T08:00:11.696Z,44.82
2022-09-09T08:02:49.702Z,44.92
2022-09-09T08:05:21.621Z,45.09
2022-09-09T08:07:54.192Z,45.67
2022-09-09T08:10:26.456Z,46.46
2022-09-09T08:13:17.377Z,46.94
2022-09-09T08:15:52.127Z,46.43
2022-09-09T08:18:24.882Z,46.74
2022-09-09T08:20:56.529Z,47.10
2022-09-09T08:23:28.198Z,47.21
2022-09-09T08:26:07.790Z,46.45
2022-09-09T08:28:41.056Z,46.67
2022-09-09T08:31:19.429Z,47.50
2022-09-09T08:33:53.247Z,47.49
2022-09-09T08:36:28.561Z,46.81
2022-09-09T08:39:00.891Z,47.07
2022-09-09T08:41:59.426Z,47.09
2022-09-09T08:44:56.159Z,46.60
2022-09-09T08:47:33.938Z,47.12
2022-09-09T08:50:26.454Z,46.22
2022-09-09T08:53:18.560Z,45.82
2022-09-09T08:55:54.087Z,45.82
2022-09-09T08:58:34.017Z,45.21
2022-09-09T09:01:43.203Z,45.34
2022-09-09T09:04:34.794Z,45.04
2022-09-09T09:07:33.097Z,44.88
2022-09-09T09:10:40.581Z,44.58
2022-09-09T09:13:43.817Z,44.04
2022-09-09T09:16:18.781Z,43.40
2022-09-09T09:18:52.086Z,42.46
2022-09-09T09:21:37.445Z,41.75
2022-09-09T09:24:26.055Z,41.57
2022-09-09T09:26:58.102Z,40.99
2022-09-09T09:29:30.342Z,41.17
2022-09-09T09:32:04.239Z,40.77
2022-09-09T09:34:35.861Z,39.82
2022-09-09T09:37:20.769Z,39.28
2022-09-09T09:40:08.039Z,39.31
2022-09-09T09:42:54.087Z,38.62
2022-09-09T09:45:30.198Z,38.38
2022-09-09T09:48:13.833Z,37.73
2022-09-09T09:50:53.479Z,36.48
2022-09-09T09:53:30.734Z,33.00
2022-09-09T09:56:07.801Z,33.08
2022-09-09T09:58:45.523Z,33.00
2022-09-09T10:01:36.243Z,32.81
2022-09-09T10:04:17.405Z,33.50
2022-09-09T10:06:49.155Z,32.63
2022-09-09T10:09:26.852Z,33.70
2022-09-09T10:12:09.966Z,34.47
2022-09-09T10:15:00.020Z,33.91
2022-09-09T10:17:47.252Z,33.46
2022-09-09T10:20:45.576Z,34.10
2022-09-09T10:23:48.544Z,33.37
2022-09-09T10:26:31.528Z,32.07
2022-09-09T10:29:22.273Z,32.49
2022-09-09T10:32:12.357Z,33.00
2022-09-09T10:35:11.120Z,31.64
2022-09-09T10:37:58.598Z,32.32
2022-09-09T10:40:45.424Z,32.46
2022-09-09T10:43:28.931Z,33.64
2022-09-09T10:46:29.374Z,32.11
2022-09-09T10:49:09.681Z,33.04
2022-09-09T10:51:55.601Z,30.25
2022-09-09T10:54:34.934Z,30.39
2022-09-09T10:57:18.035Z,30.54
2022-09-09T10:59:57.842Z,31.47
2022-09-09T11:02:34.587Z,31.89
2022-09-09T11:05:29.522Z,30.68
2022-09-09T11:08:05.936Z,30.21
2022-09-09T11:10:46.074Z,30.52
2022-09-09T11:13:44.326Z,31.23
2022-09-09T11:16:24.677Z,30.90
2022-09-09T11:19:06.472Z,32.19
2022-09-09T11:21:59.721Z,31.83
2022-09-09T11:24:45.443Z,32.28
2022-09-09T11:27:38.036Z,31.71
2022-09-09T11:30:54.783Z,32.12
2022-09-09T11:33:50.170Z,32.93
2022-09-09T11:36:46.364Z,34.80
2022-09-09T11:39:48.602Z,35.98
2022-09-09T11:42:23.429Z,37.23
2022-09-09T11:44:56.149Z,38.95
2022-09-09T11:47:31.001Z,40.16
2022-09-09T11:50:31.138Z,41.02
2022-09-09T11:53:14.858Z,41.99
2022-09-09T11:55:46.505Z,42.59
2022-09-09T11:58:20.187Z,43.17
2022-09-09T12:00:51.893Z,43.46
2022-09-09T12:03:49.593Z,44.60
2022-09-09T12:06:33.009Z,45.46
2022-09-09T12:09:16.386Z,45.76
2022-09-09T12:11:47.949Z,46.42
2022-09-09T12:14:42.554Z,49.52
2022-09-09T12:17:16.861Z,49.93
2022-09-09T12:19:49.446Z,51.89
2022-09-09T12:22:24.035Z,53.97
2022-09-09T12:25:23.304Z,55.18
2022-09-09T12:28:11.189Z,54.42
2022-09-09T12:31:08.882Z,56.96
2022-09-09T12:33:46.633Z,59.08
2022-09-09T12:36:22.834Z,50.36
2022-09-09T12:38:56.186Z,47.62
2022-09-09T12:41:29.895Z,54.06
2022-09-09T12:44:10.737Z,56.86
2022-09-09T12:46:45.645Z,59.25
2022-09-09T12:49:28.643Z,56.77
2022-09-09T12:52:02.134Z,58.83
2022-09-09T12:54:37.343Z,59.99
2022-09-09T12:57:13.095Z,63.07
2022-09-09T12:59:49.264Z,63.13
2022-09-09T13:02:26.746Z,63.37
2022-09-09T13:05:17.372Z,63.82
2022-09-09T13:07:49.214Z,66.57
2022-09-09T13:10:36.816Z,64.98
2022-09-09T13:13:21.980Z,68.31
2022-09-09T13:16:05.623Z,68.07
2022-09-09T13:18:41.437Z,69.45
2022-09-09T13:21:13.305Z,69.12
2022-09-09T13:23:51.240Z,70.76
2022-09-09T13:26:22.801Z,72.67
2022-09-09T13:28:55.824Z,68.13
2022-09-09T13:31:33.740Z,67.98
2022-09-09T13:34:34.324Z,69.30
2022-09-09T13:37:15.362Z,69.42
2022-09-09T13:39:54.221Z,68.63
2022-09-09T13:42:32.385Z,68.65
2022-09-09T13:45:05.540Z,69.65
2022-09-09T13:47:38.222Z,69.37
2022-09-09T13:50:29.474Z,71.00
2022-09-09T13:53:02.461Z,69.87
2022-09-09T13:55:37.617Z,69.59
2022-09-09T13:58:17.946Z,68.33
2022-09-09T14:00:50.899Z,68.45
2022-09-09T14:03:22.628Z,66.97
2022-09-09T14:05:55.227Z,67.53
2022-09-09T14:08:28.060Z,69.06
2022-09-09T14:11:00.450Z,69.24
2022-09-09T14:13:32.304Z,68.03
2022-09-09T14:16:03.910Z,67.81
2022-09-09T14:18:35.553Z,64.81
2022-09-09T14:21:07.403Z,65.86
2022-09-09T14:23:39.540Z,64.34
2022-09-09T14:26:11.106Z,64.64
2022-09-09T14:28:54.871Z,64.04
2022-09-09T14:31:27.232Z,61.69
2022-09-09T14:33:59.823Z,61.19
2022-09-09T14:36:31.499Z,61.67
2022-09-09T14:39:03.181Z,61.31
2022-09-09T14:41:35.045Z,62.51
2022-09-09T14:44:06.700Z,62.01
2022-09-09T14:46:38.251Z,62.30
2022-09-09T14:49:11.378Z,62.85
2022-09-09T14:51:43.025Z,63.51
2022-09-09T14:54:15.829Z,63.48
2022-09-09T14:56:48.494Z,62.02
2022-09-09T14:59:23.308Z,62.57
2022-09-09T15:01:55.000Z,62.15
2022-09-09T15:04:26.606Z,62.51
2022-09-09T15:07:01.049Z,63.13
2022-09-09T15:09:32.740Z,62.05
2022-09-09T15:12:05.591Z,61.49
2022-09-09T15:14:37.264Z,62.08
2022-09-09T15:17:08.902Z,61.30
2022-09-09T15:19:40.441Z,61.21
2022-09-09T15:22:12.032Z,61.08
2022-09-09T15:24:43.628Z,58.49
2022-09-09T15:27:15.677Z,58.87
2022-09-09T15:29:47.857Z,59.69
2022-09-09T15:32:22.325Z,59.34
2022-09-09T15:34:54.359Z,59.26
2022-09-09T15:37:25.968Z,59.56
2022-09-09T15:39:59.781Z,59.13
2022-09-09T15:42:34.340Z,58.44
2022-09-09T15:45:06.997Z,58.03
2022-09-09T15:47:38.597Z,58.78
2022-09-09T15:50:11.470Z,59.11
2022-09-09T15:52:43.042Z,58.93
2022-09-09T15:55:14.693Z,59.13
2022-09-09T15:57:46.236Z,59.60
2022-09-09T16:00:17.890Z,59.78
2022-09-09T16:02:49.743Z,59.88
2022-09-09T16:05:21.966Z,59.72
2022-09-09T16:07:53.557Z,59.23
2022-09-09T16:10:25.117Z,59.40
2022-09-09T16:12:56.662Z,59.81
2022-09-09T16:15:28.211Z,59.96
2022-09-09T16:17:59.837Z,59.86
2022-09-09T16:20:31.371Z,59.96
2022-09-09T16:23:02.946Z,60.43
2022-09-09T16:25:34.691Z,60.73
2022-09-09T16:28:06.305Z,60.53
2022-09-09T16:30:38.230Z,60.42
2022-09-09T16:33:09.759Z,59.96
2022-09-09T16:35:42.026Z,60.28
2022-09-09T16:38:13.666Z,60.52
2022-09-09T16:40:45.717Z,60.86
2022-09-09T16:43:17.354Z,60.61
2022-09-09T16:45:48.923Z,60.04
2022-09-09T16:48:21.362Z,59.70
2022-09-09T16:51:22.451Z,59.61
2022-09-09T16:53:56.160Z,59.90
2022-09-09T16:56:30.930Z,59.95
2022-09-09T16:59:06.128Z,60.33
2022-09-09T17:01:41.583Z,60.33
2022-09-09T17:04:26.367Z,60.86
2022-09-09T17:07:01.261Z,61.12
2022-09-09T17:09:32.868Z,61.12
2022-09-09T17:12:04.648Z,60.81
2022-09-09T17:14:37.304Z,61.17
2022-09-09T17:17:30.167Z,61.18
2022-09-09T17:20:00.405Z,61.31
2022-09-09T17:22:31.991Z,61.29
2022-09-09T17:25:04.318Z,61.58
2022-09-09T17:27:38.941Z,61.59
2022-09-09T17:30:10.995Z,62.25
2022-09-09T17:32:42.952Z,62.33
2022-09-09T17:35:14.625Z,62.64
2022-09-09T17:37:46.414Z,63.02
2022-09-09T17:40:21.324Z,63.29
2022-09-09T17:42:52.969Z,63.95
2022-09-09T17:45:24.606Z,64.02
2022-09-09T17:47:56.249Z,64.35
2022-09-09T17:50:27.757Z,64.54
2022-09-09T17:52:59.357Z,64.83
2022-09-09T17:55:30.902Z,65.09
2022-09-09T17:58:02.452Z,65.50
2022-09-09T18:00:34.000Z,65.50
2022-09-09T18:03:05.618Z,65.75
2022-09-09T18:05:38.462Z,65.88
2022-09-09T18:08:10.232Z,66.12
2022-09-09T18:10:41.763Z,66.47
2022-09-09T18:13:13.410Z,66.47
2022-09-09T18:15:49.572Z,66.69
2022-09-09T18:18:22.193Z,67.02
2022-09-09T18:21:06.625Z,67.24
2022-09-09T18:23:40.780Z,67.31
2022-09-09T18:26:18.440Z,67.23
2022-09-09T18:28:52.421Z,66.89
2022-09-09T18:31:27.188Z,66.74
2022-09-09T18:34:01.382Z,66.60
2022-09-09T18:36:36.133Z,66.33
2022-09-09T18:39:11.561Z,66.20
2022-09-09T18:41:48.217Z,66.28
2022-09-09T18:44:28.401Z,66.47
2022-09-09T18:47:00.694Z,66.67
2022-09-09T18:49:33.323Z,66.79
2022-09-09T18:52:10.920Z,66.76
2022-09-09T18:54:48.117Z,66.89
2022-09-09T18:57:20.371Z,67.00
2022-09-09T18:59:54.705Z,67.29
2022-09-09T19:02:32.419Z,66.90
2022-09-09T19:05:04.309Z,67.26
2022-09-09T19:07:35.902Z,67.25
2022-09-09T19:10:07.840Z,67.37
2022-09-09T19:12:41.375Z,67.64
2022-09-09T19:15:13.242Z,68.16
2022-09-09T19:17:44.910Z,68.18
2022-09-09T19:20:17.676Z,67.91
2022-09-09T19:22:49.765Z,68.07
2022-09-09T19:25:22.204Z,68.33
2022-09-09T19:27:53.836Z,69.03
2022-09-09T19:30:26.323Z,69.42
2022-09-09T19:32:59.421Z,69.53
2022-09-09T19:35:31.474Z,69.47
2022-09-09T19:38:05.848Z,69.31
2022-09-09T19:40:37.417Z,69.20
2022-09-09T19:43:09.597Z,69.10
2022-09-09T19:45:41.152Z,68.70
2022-09-09T19:48:14.310Z,68.87
2022-09-09T19:50:47.872Z,68.25
2022-09-09T19:53:19.812Z,68.27
2022-09-09T19:55:51.871Z,68.27
2022-09-09T19:58:23.748Z,68.60
2022-09-09T20:00:55.334Z,68.68
2022-09-09T20:03:26.971Z,68.67
2022-09-09T20:05:58.629Z,68.94
2022-09-09T20:08:30.950Z,69.27
2022-09-09T20:11:02.976Z,69.44
2022-09-09T20:13:38.820Z,69.83
2022-09-09T20:16:16.265Z,69.46
2022-09-09T20:18:52.388Z,68.64
2022-09-09T20:21:36.079Z,68.45
2022-09-09T20:24:12.815Z,68.54
2022-09-09T20:26:46.417Z,67.77
2022-09-09T20:29:20.011Z,66.47
2022-09-09T20:31:51.990Z,66.81
2022-09-09T20:34:25.727Z,66.56
2022-09-09T20:36:59.107Z,65.56
2022-09-09T20:39:30.971Z,64.51
2022-09-09T20:42:03.446Z,64.02
2022-09-09T20:44:35.105Z,62.92
2022-09-09T20:47:07.174Z,61.83
2022-09-09T20:49:38.724Z,61.95
2022-09-09T20:52:11.687Z,61.75
2022-09-09T20:54:44.344Z,61.01
2022-09-09T20:57:20.106Z,61.06
2022-09-09T20:59:54.337Z,61.62
2022-09-09T21:02:26.316Z,60.26
2022-09-09T21:04:57.913Z,60.35
2022-09-09T21:07:29.488Z,60.97
2022-09-09T21:10:02.111Z,60.25
2022-09-09T21:12:33.741Z,60.06
2022-09-09T21:15:05.704Z,60.41
2022-09-09T21:17:37.520Z,61.37
2022-09-09T21:20:09.824Z,61.46
2022-09-09T21:22:41.377Z,61.68
2022-09-09T21:25:13.124Z,61.91
2022-09-09T21:27:44.694Z,61.93
2022-09-09T21:30:18.732Z,62.90
2022-09-09T21:32:50.394Z,63.26
2022-09-09T21:35:21.968Z,62.63
2022-09-09T21:37:54.489Z,62.58
2022-09-09T21:40:29.346Z,62.81
2022-09-09T21:43:01.030Z,63.10
2022-09-09T21:45:34.846Z,63.12
2022-09-09T21:48:12.584Z,63.97
2022-09-09T21:50:47.364Z,65.62
2022-09-09T21:53:20.309Z,65.37
2022-09-09T21:55:51.846Z,65.05
2022-09-09T21:58:23.425Z,65.22
2022-09-09T22:00:54.983Z,65.04
2022-09-09T22:03:26.671Z,65.03
2022-09-09T22:05:58.886Z,66.65
2022-09-09T22:08:30.452Z,66.05
2022-09-09T22:11:08.740Z,66.34
2022-09-09T22:13:40.668Z,65.93
2022-09-09T22:16:14.143Z,65.70
2022-09-09T22:18:51.601Z,65.52
2022-09-09T22:21:23.920Z,65.84
2022-09-09T22:23:58.006Z,65.78
2022-09-09T22:26:32.079Z,65.60
2022-09-09T22:29:04.986Z,65.63
2022-09-09T22:31:36.628Z,65.39
2022-09-09T22:34:08.311Z,65.35
2022-09-09T22:36:39.842Z,65.74
2022-09-09T22:39:11.430Z,65.89
2022-09-09T22:41:42.977Z,65.72
2022-09-09T22:44:14.913Z,65.63
2022-09-09T22:46:46.624Z,65.66
2022-09-09T22:49:18.229Z,65.64
2022-09-09T22:51:50.683Z,66.03
2022-09-09T22:54:23.636Z,66.46
2022-09-09T22:56:55.251Z,66.48
2022-09-09T22:59:28.052Z,66.47
2022-09-09T23:01:59.923Z,67.00
2022-09-09T23:04:31.485Z,67.26
2022-09-09T23:07:07.994Z,67.72
2022-09-09T23:09:39.543Z,67.95
2022-09-09T23:12:11.235Z,67.98
2022-09-09T23:14:42.817Z,67.90
2022-09-09T23:17:17.696Z,68.22
2022-09-09T23:19:56.696Z,67.99
2022-09-09T23:22:29.066Z,67.82
2022-09-09T23:25:01.667Z,68.01
2022-09-09T23:27:33.528Z,68.03
2022-09-09T23:30:07.172Z,68.32
2022-09-09T23:32:38.877Z,68.77
2022-09-09T23:35:16.009Z,68.74
2022-09-09T23:37:48.040Z,68.80
2022-09-09T23:40:19.637Z,68.80
2022-09-09T23:42:51.205Z,68.79
2022-09-09T23:45:22.759Z,68.90
2022-09-09T23:47:55.756Z,68.29
2022-09-09T23:50:30.464Z,68.44
2022-09-09T23:53:03.170Z,68.49
2022-09-09T23:55:35.791Z,68.23
2022-09-09T23:58:07.957Z,68.17
